sensor_id;sensor_type;location;lat;lon;timestamp;pressure;altitude;pressure_sealevel;temperature;humidity
28004;BME280;15330;51.234;6.754;2024-01-16T00:01:04;100561.47;;;1.13;87.92
28004;BME280;15330;51.234;6.754;2024-01-16T00:03:30;100556.56;;;1.23;87.55
28004;BME280;15330;51.234;6.754;2024-01-16T00:05:55;100562.75;;;1.22;88.11
28004;BME280;15330;51.234;6.754;2024-01-16T00:08:21;100559.81;;;1.28;87.24
28004;BME280;15330;51.234;6.754;2024-01-16T00:10:46;100561.38;;;1.32;87.24
28004;BME280;15330;51.234;6.754;2024-01-16T00:13:11;100559.63;;;1.48;86.60
28004;BME280;15330;51.234;6.754;2024-01-16T00:15:37;100561.44;;;1.48;86.73
28004;BME280;15330;51.234;6.754;2024-01-16T00:18:02;100567.06;;;1.57;86.66
28004;BME280;15330;51.234;6.754;2024-01-16T00:20:28;100567.13;;;1.23;87.14
28004;BME280;15330;51.234;6.754;2024-01-16T00:22:53;100570.28;;;1.29;87.34
28004;BME280;15330;51.234;6.754;2024-01-16T00:25:19;100564.22;;;1.27;87.19
28004;BME280;15330;51.234;6.754;2024-01-16T00:27:45;100561.44;;;1.30;87.82
28004;BME280;15330;51.234;6.754;2024-01-16T00:30:11;100565.13;;;1.44;86.76
28004;BME280;15330;51.234;6.754;2024-01-16T00:32:39;100564.97;;;1.47;86.78
28004;BME280;15330;51.234;6.754;2024-01-16T00:35:04;100572.41;;;1.23;87.23
28004;BME280;15330;51.234;6.754;2024-01-16T00:37:30;100567.34;;;1.35;86.80
28004;BME280;15330;51.234;6.754;2024-01-16T00:39:55;100563.13;;;1.31;86.98
28004;BME280;15330;51.234;6.754;2024-01-16T00:42:20;100574.72;;;1.11;88.34
28004;BME280;15330;51.234;6.754;2024-01-16T00:44:46;100576.16;;;1.34;86.85
28004;BME280;15330;51.234;6.754;2024-01-16T00:47:11;100578.78;;;1.52;86.53
28004;BME280;15330;51.234;6.754;2024-01-16T00:49:37;100577.34;;;1.29;87.49
28004;BME280;15330;51.234;6.754;2024-01-16T00:52:02;100576.16;;;1.34;86.57
28004;BME280;15330;51.234;6.754;2024-01-16T00:54:28;100581.44;;;1.34;86.67
28004;BME280;15330;51.234;6.754;2024-01-16T00:56:54;100578.56;;;1.22;86.70
28004;BME280;15330;51.234;6.754;2024-01-16T00:59:25;100582.84;;;1.42;86.63
28004;BME280;15330;51.234;6.754;2024-01-16T01:01:50;100588.22;;;1.23;87.23
28004;BME280;15330;51.234;6.754;2024-01-16T01:04:15;100599.28;;;1.12;87.67
28004;BME280;15330;51.234;6.754;2024-01-16T01:06:41;100589.44;;;1.15;88.01
28004;BME280;15330;51.234;6.754;2024-01-16T01:09:06;100593.34;;;1.26;87.41
28004;BME280;15330;51.234;6.754;2024-01-16T01:11:32;100597.25;;;1.34;86.80
28004;BME280;15330;51.234;6.754;2024-01-16T01:13:57;100606.13;;;1.16;87.25
28004;BME280;15330;51.234;6.754;2024-01-16T01:16:23;100603.81;;;1.10;87.75
28004;BME280;15330;51.234;6.754;2024-01-16T01:18:48;100606.09;;;0.99;88.21
28004;BME280;15330;51.234;6.754;2024-01-16T01:21:13;100603.66;;;1.13;87.63
28004;BME280;15330;51.234;6.754;2024-01-16T01:23:39;100604.31;;;1.34;86.85
28004;BME280;15330;51.234;6.754;2024-01-16T01:26:04;100601.06;;;1.11;87.73
28004;BME280;15330;51.234;6.754;2024-01-16T01:28:30;100611.91;;;1.05;88.01
28004;BME280;15330;51.234;6.754;2024-01-16T01:30:55;100607.34;;;1.09;87.94
28004;BME280;15330;51.234;6.754;2024-01-16T01:33:21;100607.03;;;1.15;87.64
28004;BME280;15330;51.234;6.754;2024-01-16T01:35:46;100611.00;;;1.24;87.27
28004;BME280;15330;51.234;6.754;2024-01-16T01:38:11;100608.44;;;1.05;87.77
28004;BME280;15330;51.234;6.754;2024-01-16T01:40:37;100608.84;;;1.14;87.90
28004;BME280;15330;51.234;6.754;2024-01-16T01:45:47;100625.19;;;1.21;87.50
28004;BME280;15330;51.234;6.754;2024-01-16T01:48:20;100620.06;;;1.01;88.61
28004;BME280;15330;51.234;6.754;2024-01-16T01:50:46;100624.19;;;1.06;88.06
28004;BME280;15330;51.234;6.754;2024-01-16T01:53:11;100616.38;;;1.22;87.39
28004;BME280;15330;51.234;6.754;2024-01-16T01:55:37;100618.53;;;1.14;88.17
28004;BME280;15330;51.234;6.754;2024-01-16T01:58:02;100620.72;;;1.23;88.13
28004;BME280;15330;51.234;6.754;2024-01-16T02:00:30;100618.06;;;1.23;87.77
28004;BME280;15330;51.234;6.754;2024-01-16T02:02:55;100623.63;;;1.34;87.69
28004;BME280;15330;51.234;6.754;2024-01-16T02:05:21;100619.31;;;1.16;87.63
28004;BME280;15330;51.234;6.754;2024-01-16T02:07:46;100623.88;;;1.30;87.51
28004;BME280;15330;51.234;6.754;2024-01-16T02:10:12;100638.16;;;1.26;88.02
28004;BME280;15330;51.234;6.754;2024-01-16T02:12:37;100621.31;;;1.11;88.40
28004;BME280;15330;51.234;6.754;2024-01-16T02:15:03;100622.56;;;1.21;88.05
28004;BME280;15330;51.234;6.754;2024-01-16T02:17:28;100627.06;;;1.19;88.62
28004;BME280;15330;51.234;6.754;2024-01-16T02:19:54;100627.53;;;1.27;88.12
28004;BME280;15330;51.234;6.754;2024-01-16T02:22:20;100626.72;;;1.25;87.82
28004;BME280;15330;51.234;6.754;2024-01-16T02:24:49;100634.75;;;1.06;88.34
28004;BME280;15330;51.234;6.754;2024-01-16T02:27:14;100624.03;;;1.44;87.23
28004;BME280;15330;51.234;6.754;2024-01-16T02:29:43;100626.22;;;1.36;87.48
28004;BME280;15330;51.234;6.754;2024-01-16T02:32:11;100623.41;;;1.22;88.17
28004;BME280;15330;51.234;6.754;2024-01-16T02:34:38;100631.38;;;1.37;87.10
28004;BME280;15330;51.234;6.754;2024-01-16T02:37:03;100633.97;;;1.39;87.50
28004;BME280;15330;51.234;6.754;2024-01-16T02:39:29;100630.47;;;1.21;87.83
28004;BME280;15330;51.234;6.754;2024-01-16T02:41:55;100625.03;;;1.24;87.77
28004;BME280;15330;51.234;6.754;2024-01-16T02:44:20;100619.47;;;1.48;86.89
28004;BME280;15330;51.234;6.754;2024-01-16T02:46:45;100625.22;;;1.38;87.72
28004;BME280;15330;51.234;6.754;2024-01-16T02:49:11;100613.66;;;1.24;88.09
28004;BME280;15330;51.234;6.754;2024-01-16T02:51:37;100617.50;;;1.34;87.64
28004;BME280;15330;51.234;6.754;2024-01-16T02:54:02;100614.34;;;1.10;88.53
28004;BME280;15330;51.234;6.754;2024-01-16T02:56:27;100616.50;;;1.36;87.78
28004;BME280;15330;51.234;6.754;2024-01-16T02:58:53;100622.09;;;1.30;88.03
28004;BME280;15330;51.234;6.754;2024-01-16T03:01:18;100607.13;;;1.31;88.25
28004;BME280;15330;51.234;6.754;2024-01-16T03:03:43;100607.13;;;1.13;88.74
28004;BME280;15330;51.234;6.754;2024-01-16T03:06:09;100610.75;;;1.28;88.46
28004;BME280;15330;51.234;6.754;2024-01-16T03:08:34;100617.28;;;1.04;89.17
28004;BME280;15330;51.234;6.754;2024-01-16T03:11:00;100617.75;;;1.12;88.72
28004;BME280;15330;51.234;6.754;2024-01-16T03:13:25;100608.91;;;1.30;88.32
28004;BME280;15330;51.234;6.754;2024-01-16T03:15:51;100604.56;;;1.29;88.31
28004;BME280;15330;51.234;6.754;2024-01-16T03:18:16;100612.84;;;1.22;88.51
28004;BME280;15330;51.234;6.754;2024-01-16T03:20:42;100611.16;;;1.21;88.54
28004;BME280;15330;51.234;6.754;2024-01-16T03:23:08;100607.03;;;1.15;88.74
28004;BME280;15330;51.234;6.754;2024-01-16T03:25:33;100605.63;;;1.25;88.28
28004;BME280;15330;51.234;6.754;2024-01-16T03:28:04;100617.59;;;0.98;89.12
28004;BME280;15330;51.234;6.754;2024-01-16T03:30:29;100615.03;;;1.13;89.15
28004;BME280;15330;51.234;6.754;2024-01-16T03:32:55;100611.22;;;1.02;89.86
28004;BME280;15330;51.234;6.754;2024-01-16T03:35:20;100613.88;;;1.19;88.99
28004;BME280;15330;51.234;6.754;2024-01-16T03:37:45;100612.78;;;1.06;88.98
28004;BME280;15330;51.234;6.754;2024-01-16T03:40:11;100611.84;;;1.24;88.84
28004;BME280;15330;51.234;6.754;2024-01-16T03:42:38;100617.97;;;1.25;88.21
28004;BME280;15330;51.234;6.754;2024-01-16T03:45:03;100617.59;;;1.32;88.10
28004;BME280;15330;51.234;6.754;2024-01-16T03:47:30;100616.59;;;1.17;88.73
28004;BME280;15330;51.234;6.754;2024-01-16T03:49:56;100616.03;;;1.28;88.01
28004;BME280;15330;51.234;6.754;2024-01-16T03:52:21;100612.47;;;1.12;88.49
28004;BME280;15330;51.234;6.754;2024-01-16T03:54:46;100620.16;;;1.16;88.23
28004;BME280;15330;51.234;6.754;2024-01-16T03:57:13;100617.13;;;1.24;87.74
28004;BME280;15330;51.234;6.754;2024-01-16T03:59:38;100614.59;;;1.23;88.33
28004;BME280;15330;51.234;6.754;2024-01-16T04:02:04;100618.50;;;1.31;87.97
28004;BME280;15330;51.234;6.754;2024-01-16T04:04:29;100610.59;;;1.31;87.97
28004;BME280;15330;51.234;6.754;2024-01-16T04:06:54;100616.13;;;1.27;88.00
28004;BME280;15330;51.234;6.754;2024-01-16T04:09:20;100617.59;;;1.15;87.83
28004;BME280;15330;51.234;6.754;2024-01-16T04:11:45;100623.41;;;1.22;87.96
28004;BME280;15330;51.234;6.754;2024-01-16T04:14:12;100618.22;;;1.20;88.14
28004;BME280;15330;51.234;6.754;2024-01-16T04:16:37;100624.25;;;1.05;88.58
28004;BME280;15330;51.234;6.754;2024-01-16T04:19:03;100625.03;;;1.07;87.88
28004;BME280;15330;51.234;6.754;2024-01-16T04:21:28;100621.63;;;1.05;87.98
28004;BME280;15330;51.234;6.754;2024-01-16T04:23:54;100623.09;;;1.28;87.83
28004;BME280;15330;51.234;6.754;2024-01-16T04:26:19;100617.81;;;1.28;87.33
28004;BME280;15330;51.234;6.754;2024-01-16T04:28:44;100623.94;;;1.28;87.31
28004;BME280;15330;51.234;6.754;2024-01-16T04:31:11;100620.56;;;1.26;87.25
28004;BME280;15330;51.234;6.754;2024-01-16T04:33:37;100619.94;;;1.38;87.11
28004;BME280;15330;51.234;6.754;2024-01-16T04:36:03;100618.81;;;1.25;87.56
28004;BME280;15330;51.234;6.754;2024-01-16T04:38:28;100614.50;;;1.24;87.38
28004;BME280;15330;51.234;6.754;2024-01-16T04:40:53;100609.38;;;1.04;88.15
28004;BME280;15330;51.234;6.754;2024-01-16T04:43:19;100625.03;;;1.24;87.77
28004;BME280;15330;51.234;6.754;2024-01-16T04:45:44;100619.63;;;1.10;88.53
28004;BME280;15330;51.234;6.754;2024-01-16T04:48:09;100619.47;;;1.30;87.72
28004;BME280;15330;51.234;6.754;2024-01-16T04:50:35;100618.69;;;1.11;87.71
28004;BME280;15330;51.234;6.754;2024-01-16T04:53:01;100619.38;;;1.14;88.50
28004;BME280;15330;51.234;6.754;2024-01-16T04:55:30;100622.84;;;0.98;89.21
28004;BME280;15330;51.234;6.754;2024-01-16T04:57:56;100620.47;;;1.10;88.54
28004;BME280;15330;51.234;6.754;2024-01-16T05:00:22;100615.34;;;1.07;88.66
28004;BME280;15330;51.234;6.754;2024-01-16T05:02:48;100620.47;;;1.10;88.30
28004;BME280;15330;51.234;6.754;2024-01-16T05:05:13;100612.63;;;1.09;88.32
28004;BME280;15330;51.234;6.754;2024-01-16T05:07:39;100618.38;;;1.00;88.17
28004;BME280;15330;51.234;6.754;2024-01-16T05:10:05;100612.00;;;1.21;87.70
28004;BME280;15330;51.234;6.754;2024-01-16T05:12:31;100609.06;;;1.45;86.77
28004;BME280;15330;51.234;6.754;2024-01-16T05:14:57;100610.53;;;1.33;86.74
28004;BME280;15330;51.234;6.754;2024-01-16T05:17:23;100608.94;;;1.63;86.73
28004;BME280;15330;51.234;6.754;2024-01-16T05:19:48;100609.22;;;1.42;86.76
28004;BME280;15330;51.234;6.754;2024-01-16T05:22:14;100603.16;;;1.90;89.65
28004;BME280;15330;51.234;6.754;2024-01-16T05:24:40;100607.03;;;3.54;90.70
28004;BME280;15330;51.234;6.754;2024-01-16T05:27:06;100606.50;;;2.73;84.37
28004;BME280;15330;51.234;6.754;2024-01-16T05:29:31;100602.44;;;1.71;84.84
28004;BME280;15330;51.234;6.754;2024-01-16T05:31:57;100603.78;;;1.45;85.98
28004;BME280;15330;51.234;6.754;2024-01-16T05:34:22;100612.53;;;1.62;85.22
28004;BME280;15330;51.234;6.754;2024-01-16T05:36:48;100608.50;;;1.38;85.67
28004;BME280;15330;51.234;6.754;2024-01-16T05:39:13;100603.34;;;1.19;85.85
28004;BME280;15330;51.234;6.754;2024-01-16T05:41:39;100604.88;;;1.23;85.75
28004;BME280;15330;51.234;6.754;2024-01-16T05:44:04;100601.00;;;1.13;86.52
28004;BME280;15330;51.234;6.754;2024-01-16T05:46:31;100594.63;;;1.34;85.60
28004;BME280;15330;51.234;6.754;2024-01-16T05:48:57;100596.66;;;1.29;85.18
28004;BME280;15330;51.234;6.754;2024-01-16T05:51:23;100591.22;;;1.15;85.57
28004;BME280;15330;51.234;6.754;2024-01-16T05:53:48;100593.72;;;1.01;85.76
28004;BME280;15330;51.234;6.754;2024-01-16T05:56:13;100585.31;;;0.92;86.41
28004;BME280;15330;51.234;6.754;2024-01-16T05:58:39;100582.09;;;1.05;86.04
28004;BME280;15330;51.234;6.754;2024-01-16T06:01:05;100585.56;;;0.88;85.43
28004;BME280;15330;51.234;6.754;2024-01-16T06:03:30;100580.66;;;0.80;86.39
28004;BME280;15330;51.234;6.754;2024-01-16T06:05:56;100586.72;;;0.82;85.75
28004;BME280;15330;51.234;6.754;2024-01-16T06:08:21;100582.38;;;0.81;84.98
28004;BME280;15330;51.234;6.754;2024-01-16T06:10:47;100586.25;;;0.74;85.47
28004;BME280;15330;51.234;6.754;2024-01-16T06:13:12;100581.16;;;0.88;85.23
28004;BME280;15330;51.234;6.754;2024-01-16T06:15:37;100579.00;;;0.60;85.66
28004;BME280;15330;51.234;6.754;2024-01-16T06:18:03;100579.09;;;0.76;85.75
28004;BME280;15330;51.234;6.754;2024-01-16T06:20:28;100586.16;;;0.76;85.36
28004;BME280;15330;51.234;6.754;2024-01-16T06:22:54;100584.81;;;0.67;85.17
28004;BME280;15330;51.234;6.754;2024-01-16T06:25:19;100580.19;;;0.55;85.55
28004;BME280;15330;51.234;6.754;2024-01-16T06:27:45;100586.34;;;0.54;85.00
28004;BME280;15330;51.234;6.754;2024-01-16T06:30:11;100589.41;;;0.63;85.01
28004;BME280;15330;51.234;6.754;2024-01-16T06:32:36;100588.09;;;0.55;85.08
28004;BME280;15330;51.234;6.754;2024-01-16T06:35:01;100587.97;;;0.39;85.18
28004;BME280;15330;51.234;6.754;2024-01-16T06:37:27;100595.34;;;0.50;84.88
28004;BME280;15330;51.234;6.754;2024-01-16T06:39:52;100590.72;;;0.55;84.30
28004;BME280;15330;51.234;6.754;2024-01-16T06:42:17;100587.72;;;0.43;84.79
28004;BME280;15330;51.234;6.754;2024-01-16T06:44:43;100593.56;;;0.31;85.11
28004;BME280;15330;51.234;6.754;2024-01-16T06:47:08;100593.00;;;0.43;84.11
28004;BME280;15330;51.234;6.754;2024-01-16T06:49:34;100598.13;;;0.46;83.75
28004;BME280;15330;51.234;6.754;2024-01-16T06:51:59;100598.81;;;0.50;83.93
28004;BME280;15330;51.234;6.754;2024-01-16T06:54:24;100606.97;;;0.27;84.18
28004;BME280;15330;51.234;6.754;2024-01-16T06:56:50;100600.25;;;0.38;83.43
28004;BME280;15330;51.234;6.754;2024-01-16T06:59:15;100607.09;;;0.42;83.53
28004;BME280;15330;51.234;6.754;2024-01-16T07:01:41;100611.25;;;0.29;83.25
28004;BME280;15330;51.234;6.754;2024-01-16T07:04:06;100605.97;;;0.29;83.52
28004;BME280;15330;51.234;6.754;2024-01-16T07:06:32;100601.88;;;0.41;83.17
28004;BME280;15330;51.234;6.754;2024-01-16T07:08:57;100606.97;;;0.45;82.75
28004;BME280;15330;51.234;6.754;2024-01-16T07:11:23;100604.22;;;0.47;82.40
28004;BME280;15330;51.234;6.754;2024-01-16T07:13:48;100614.78;;;0.47;82.01
28004;BME280;15330;51.234;6.754;2024-01-16T07:16:14;100625.53;;;0.42;82.03
28004;BME280;15330;51.234;6.754;2024-01-16T07:18:39;100620.81;;;0.49;81.84
28004;BME280;15330;51.234;6.754;2024-01-16T07:21:16;100633.34;;;0.44;81.36
28004;BME280;15330;51.234;6.754;2024-01-16T07:23:41;100635.91;;;0.45;81.52
28004;BME280;15330;51.234;6.754;2024-01-16T07:26:06;100626.28;;;0.63;81.08
28004;BME280;15330;51.234;6.754;2024-01-16T07:28:32;100636.81;;;0.63;80.54
28004;BME280;15330;51.234;6.754;2024-01-16T07:30:58;100636.34;;;0.36;82.19
28004;BME280;15330;51.234;6.754;2024-01-16T07:33:23;100645.53;;;0.46;81.14
28004;BME280;15330;51.234;6.754;2024-01-16T07:35:48;100636.22;;;0.39;81.50
28004;BME280;15330;51.234;6.754;2024-01-16T07:38:14;100642.25;;;0.41;81.27
28004;BME280;15330;51.234;6.754;2024-01-16T07:40:39;100636.25;;;0.57;81.59
28004;BME280;15330;51.234;6.754;2024-01-16T07:43:05;100638.88;;;0.76;81.91
28004;BME280;15330;51.234;6.754;2024-01-16T07:45:30;100636.88;;;0.98;81.43
28004;BME280;15330;51.234;6.754;2024-01-16T07:47:55;100637.56;;;0.84;79.43
28004;BME280;15330;51.234;6.754;2024-01-16T07:50:21;100637.88;;;0.78;79.37
28004;BME280;15330;51.234;6.754;2024-01-16T07:52:46;100641.34;;;0.79;79.64
28004;BME280;15330;51.234;6.754;2024-01-16T07:55:11;100649.50;;;0.74;79.47
28004;BME280;15330;51.234;6.754;2024-01-16T07:57:37;100651.56;;;0.67;79.06
28004;BME280;15330;51.234;6.754;2024-01-16T08:00:03;100652.88;;;0.76;78.98
28004;BME280;15330;51.234;6.754;2024-01-16T08:02:32;100645.78;;;0.78;78.49
28004;BME280;15330;51.234;6.754;2024-01-16T08:04:58;100644.63;;;0.84;78.94
28004;BME280;15330;51.234;6.754;2024-01-16T08:07:24;100654.63;;;0.77;78.76
28004;BME280;15330;51.234;6.754;2024-01-16T08:09:49;100644.81;;;0.62;79.03
28004;BME280;15330;51.234;6.754;2024-01-16T08:12:14;100651.03;;;0.78;77.38
28004;BME280;15330;51.234;6.754;2024-01-16T08:14:40;100650.59;;;0.87;78.09
28004;BME280;15330;51.234;6.754;2024-01-16T08:17:05;100646.09;;;0.89;77.08
28004;BME280;15330;51.234;6.754;2024-01-16T08:19:32;100652.00;;;1.12;77.36
28004;BME280;15330;51.234;6.754;2024-01-16T08:21:57;100656.06;;;1.36;76.74
28004;BME280;15330;51.234;6.754;2024-01-16T08:24:23;100648.72;;;1.26;75.83
28004;BME280;15330;51.234;6.754;2024-01-16T08:26:49;100648.47;;;1.48;74.85
28004;BME280;15330;51.234;6.754;2024-01-16T08:29:15;100654.03;;;1.59;74.54
28004;BME280;15330;51.234;6.754;2024-01-16T08:31:40;100657.31;;;1.64;73.71
28004;BME280;15330;51.234;6.754;2024-01-16T08:34:06;100666.63;;;1.19;75.39
28004;BME280;15330;51.234;6.754;2024-01-16T08:36:31;100662.28;;;1.35;73.60
28004;BME280;15330;51.234;6.754;2024-01-16T08:38:56;100669.56;;;1.65;73.39
28004;BME280;15330;51.234;6.754;2024-01-16T08:41:22;100671.72;;;1.74;72.92
28004;BME280;15330;51.234;6.754;2024-01-16T08:43:47;100672.16;;;2.49;70.20
28004;BME280;15330;51.234;6.754;2024-01-16T08:46:13;100667.19;;;3.06;68.29
28004;BME280;15330;51.234;6.754;2024-01-16T08:48:38;100663.44;;;2.63;69.29
28004;BME280;15330;51.234;6.754;2024-01-16T08:51:08;100665.00;;;2.67;68.93
28004;BME280;15330;51.234;6.754;2024-01-16T08:53:37;100665.06;;;2.49;69.67
28004;BME280;15330;51.234;6.754;2024-01-16T08:56:02;100666.22;;;2.28;70.41
28004;BME280;15330;51.234;6.754;2024-01-16T08:58:28;100671.50;;;2.28;70.82
28004;BME280;15330;51.234;6.754;2024-01-16T09:00:53;100665.94;;;2.01;71.16
28004;BME280;15330;51.234;6.754;2024-01-16T09:03:19;100658.66;;;1.89;71.31
28004;BME280;15330;51.234;6.754;2024-01-16T09:05:44;100662.88;;;1.75;71.38
28004;BME280;15330;51.234;6.754;2024-01-16T09:08:09;100664.91;;;1.53;72.80
28004;BME280;15330;51.234;6.754;2024-01-16T09:10:35;100660.25;;;1.58;72.32
28004;BME280;15330;51.234;6.754;2024-01-16T09:13:00;100653.75;;;1.48;72.48
28004;BME280;15330;51.234;6.754;2024-01-16T09:15:25;100664.84;;;1.37;72.83
28004;BME280;15330;51.234;6.754;2024-01-16T09:17:51;100671.03;;;1.36;72.37
28004;BME280;15330;51.234;6.754;2024-01-16T09:20:16;100671.25;;;1.31;72.36
28004;BME280;15330;51.234;6.754;2024-01-16T09:22:42;100669.09;;;1.39;72.16
28004;BME280;15330;51.234;6.754;2024-01-16T09:25:07;100664.47;;;1.45;71.91
28004;BME280;15330;51.234;6.754;2024-01-16T09:27:33;100660.69;;;1.66;71.62
28004;BME280;15330;51.234;6.754;2024-01-16T09:29:58;100664.06;;;1.35;71.75
28004;BME280;15330;51.234;6.754;2024-01-16T09:32:23;100667.44;;;1.02;72.55
28004;BME280;15330;51.234;6.754;2024-01-16T09:34:49;100665.59;;;1.04;72.95
28004;BME280;15330;51.234;6.754;2024-01-16T09:37:14;100664.78;;;1.02;73.16
28004;BME280;15330;51.234;6.754;2024-01-16T09:39:40;100660.56;;;1.00;73.05
28004;BME280;15330;51.234;6.754;2024-01-16T09:42:06;100656.03;;;0.84;72.82
28004;BME280;15330;51.234;6.754;2024-01-16T09:44:32;100662.03;;;0.86;73.29
28004;BME280;15330;51.234;6.754;2024-01-16T09:46:57;100654.00;;;0.89;73.94
28004;BME280;15330;51.234;6.754;2024-01-16T09:49:24;100661.72;;;0.75;73.23
28004;BME280;15330;51.234;6.754;2024-01-16T09:51:50;100663.72;;;0.70;73.67
28004;BME280;15330;51.234;6.754;2024-01-16T09:54:15;100662.69;;;0.91;73.82
28004;BME280;15330;51.234;6.754;2024-01-16T09:56:42;100660.66;;;0.79;73.91
28004;BME280;15330;51.234;6.754;2024-01-16T09:59:09;100662.13;;;0.85;74.03
28004;BME280;15330;51.234;6.754;2024-01-16T10:01:36;100661.16;;;0.87;73.40
28004;BME280;15330;51.234;6.754;2024-01-16T10:04:02;100665.81;;;1.00;72.88
28004;BME280;15330;51.234;6.754;2024-01-16T10:06:27;100651.03;;;0.78;73.12
28004;BME280;15330;51.234;6.754;2024-01-16T10:08:54;100650.09;;;0.79;72.56
28004;BME280;15330;51.234;6.754;2024-01-16T10:11:20;100652.16;;;1.09;71.95
28004;BME280;15330;51.234;6.754;2024-01-16T10:13:46;100637.78;;;1.16;72.12
28004;BME280;15330;51.234;6.754;2024-01-16T10:16:11;100641.66;;;1.26;70.82
28004;BME280;15330;51.234;6.754;2024-01-16T10:18:37;100642.09;;;2.18;69.88
28004;BME280;15330;51.234;6.754;2024-01-16T10:21:03;100636.94;;;2.32;67.82
28004;BME280;15330;51.234;6.754;2024-01-16T10:23:32;100635.66;;;2.40;66.71
28004;BME280;15330;51.234;6.754;2024-01-16T10:26:06;100632.41;;;2.66;66.28
28004;BME280;15330;51.234;6.754;2024-01-16T10:28:32;100625.31;;;3.29;65.04
28004;BME280;15330;51.234;6.754;2024-01-16T10:31:07;100618.06;;;5.41;58.60
28004;BME280;15330;51.234;6.754;2024-01-16T10:33:33;100611.22;;;6.02;55.93
28004;BME280;15330;51.234;6.754;2024-01-16T10:36:15;100614.06;;;4.81;58.32
28004;BME280;15330;51.234;6.754;2024-01-16T10:38:45;100616.41;;;3.74;61.47
28004;BME280;15330;51.234;6.754;2024-01-16T10:41:15;100609.63;;;3.25;62.01
28004;BME280;15330;51.234;6.754;2024-01-16T10:43:42;100604.22;;;3.86;61.38
28004;BME280;15330;51.234;6.754;2024-01-16T10:46:15;100608.47;;;3.60;62.36
28004;BME280;15330;51.234;6.754;2024-01-16T10:48:43;100624.47;;;3.28;62.74
28004;BME280;15330;51.234;6.754;2024-01-16T10:51:14;100614.34;;;3.93;61.59
28004;BME280;15330;51.234;6.754;2024-01-16T10:53:44;100605.88;;;4.44;59.99
28004;BME280;15330;51.234;6.754;2024-01-16T10:56:12;100604.59;;;5.44;57.36
28004;BME280;15330;51.234;6.754;2024-01-16T10:58:40;100609.38;;;7.13;53.75
28004;BME280;15330;51.234;6.754;2024-01-16T11:01:10;100600.00;;;6.22;54.05
28004;BME280;15330;51.234;6.754;2024-01-16T11:03:46;100596.41;;;6.84;53.66
28004;BME280;15330;51.234;6.754;2024-01-16T11:06:14;100600.50;;;7.12;51.46
28004;BME280;15330;51.234;6.754;2024-01-16T11:08:41;100604.44;;;7.77;49.02
28004;BME280;15330;51.234;6.754;2024-01-16T11:11:08;100586.38;;;8.92;46.50
28004;BME280;15330;51.234;6.754;2024-01-16T11:13:34;100589.78;;;9.77;44.42
28004;BME280;15330;51.234;6.754;2024-01-16T11:16:01;100580.34;;;10.04;42.80
28004;BME280;15330;51.234;6.754;2024-01-16T11:18:27;100577.13;;;12.14;40.22
28004;BME280;15330;51.234;6.754;2024-01-16T11:20:55;100579.53;;;12.17;38.43
28004;BME280;15330;51.234;6.754;2024-01-16T11:23:21;100582.56;;;9.68;42.55
28004;BME280;15330;51.234;6.754;2024-01-16T11:25:47;100596.81;;;6.91;49.79
28004;BME280;15330;51.234;6.754;2024-01-16T11:28:13;100605.31;;;6.22;52.39
28004;BME280;15330;51.234;6.754;2024-01-16T11:30:39;100609.38;;;6.15;54.50
28004;BME280;15330;51.234;6.754;2024-01-16T11:33:05;100617.44;;;5.50;56.00
28004;BME280;15330;51.234;6.754;2024-01-16T11:35:37;100623.50;;;5.65;55.45
28004;BME280;15330;51.234;6.754;2024-01-16T11:38:07;100616.94;;;4.78;56.87
28004;BME280;15330;51.234;6.754;2024-01-16T11:40:33;100616.72;;;5.08;57.40
28004;BME280;15330;51.234;6.754;2024-01-16T11:43:40;100609.56;;;4.68;58.04
28004;BME280;15330;51.234;6.754;2024-01-16T11:46:06;100599.78;;;5.23;57.02
28004;BME280;15330;51.234;6.754;2024-01-16T11:48:33;100588.13;;;6.02;54.48
28004;BME280;15330;51.234;6.754;2024-01-16T11:50:58;100586.66;;;5.60;55.60
28004;BME280;15330;51.234;6.754;2024-01-16T12:01:11;100571.88;;;4.90;56.42
28004;BME280;15330;51.234;6.754;2024-01-16T12:03:37;100568.09;;;4.95;57.13
28004;BME280;15330;51.234;6.754;2024-01-16T12:06:03;100567.53;;;4.35;58.20
28004;BME280;15330;51.234;6.754;2024-01-16T12:08:32;100565.63;;;4.79;57.86
28004;BME280;15330;51.234;6.754;2024-01-16T12:10:57;100560.34;;;4.64;57.80
28004;BME280;15330;51.234;6.754;2024-01-16T12:13:24;100561.75;;;4.70;57.14
28004;BME280;15330;51.234;6.754;2024-01-16T12:15:59;100546.56;;;4.59;58.61
28004;BME280;15330;51.234;6.754;2024-01-16T12:18:25;100538.13;;;4.26;59.03
28004;BME280;15330;51.234;6.754;2024-01-16T12:20:50;100546.78;;;4.42;58.96
28004;BME280;15330;51.234;6.754;2024-01-16T12:23:16;100535.88;;;4.74;57.12
28004;BME280;15330;51.234;6.754;2024-01-16T12:25:41;100535.06;;;4.86;56.74
28004;BME280;15330;51.234;6.754;2024-01-16T12:28:08;100522.22;;;4.26;57.41
28004;BME280;15330;51.234;6.754;2024-01-16T12:30:37;100517.47;;;4.58;58.58
28004;BME280;15330;51.234;6.754;2024-01-16T12:35:35;100509.41;;;4.86;58.58
28004;BME280;15330;51.234;6.754;2024-01-16T12:38:01;100518.16;;;5.14;56.77
28004;BME280;15330;51.234;6.754;2024-01-16T12:40:28;100513.47;;;4.65;57.63
28004;BME280;15330;51.234;6.754;2024-01-16T12:42:54;100513.72;;;4.87;56.64
28004;BME280;15330;51.234;6.754;2024-01-16T12:45:20;100517.16;;;5.02;57.03
28004;BME280;15330;51.234;6.754;2024-01-16T12:47:55;100511.47;;;5.34;56.30
28004;BME280;15330;51.234;6.754;2024-01-16T12:50:24;100512.50;;;5.06;57.37
28004;BME280;15330;51.234;6.754;2024-01-16T12:52:50;100512.72;;;5.03;57.36
28004;BME280;15330;51.234;6.754;2024-01-16T12:55:25;100512.38;;;4.82;56.61
28004;BME280;15330;51.234;6.754;2024-01-16T12:58:16;100507.13;;;5.46;55.06
28004;BME280;15330;51.234;6.754;2024-01-16T13:00:46;100511.50;;;4.94;55.77
28004;BME280;15330;51.234;6.754;2024-01-16T13:03:23;100506.91;;;4.71;56.50
28004;BME280;15330;51.234;6.754;2024-01-16T13:05:56;100511.00;;;4.89;56.39
28004;BME280;15330;51.234;6.754;2024-01-16T13:08:22;100506.19;;;4.81;56.90